createdAt,value
2022-12-27T00:00:03.099Z,99764.59
2022-12-27T00:02:31.471Z,99788.25
2022-12-27T00:05:02.958Z,99798.88
2022-12-27T00:07:31.337Z,99796.97
2022-12-27T00:10:00.055Z,99801.66
2022-12-27T00:12:30.095Z,99810.25
2022-12-27T00:14:58.506Z,99801.50
2022-12-27T00:17:29.957Z,99802.97
2022-12-27T00:20:01.172Z,99795.22
2022-12-27T00:22:33.890Z,99798.56
2022-12-27T00:25:02.678Z,99796.06
2022-12-27T00:27:34.696Z,99793.31
2022-12-27T00:30:03.438Z,99802.25
2022-12-27T00:32:31.848Z,99806.75
2022-12-27T00:35:00.199Z,99805.00
2022-12-27T00:37:29.019Z,99804.19
2022-12-27T00:39:58.627Z,99799.91
2022-12-27T00:42:29.056Z,99803.66
2022-12-27T00:44:58.763Z,99806.81
2022-12-27T00:47:30.939Z,99803.75
2022-12-27T00:50:01.963Z,99804.91
2022-12-27T00:52:30.236Z,99809.66
2022-12-27T00:55:00.320Z,99807.84
2022-12-27T00:57:30.427Z,99808.00
2022-12-27T01:00:09.572Z,99817.47
2022-12-27T01:02:40.514Z,99814.97
2022-12-27T01:05:10.577Z,99813.03
2022-12-27T01:07:38.939Z,99828.56
2022-12-27T01:10:07.963Z,99825.38
2022-12-27T01:12:37.682Z,99840.72
2022-12-27T01:15:11.052Z,99839.63
2022-12-27T01:17:39.342Z,99840.22
2022-12-27T01:20:09.349Z,99842.97
2022-12-27T01:22:37.831Z,99844.28
2022-12-27T01:25:06.906Z,99838.09
2022-12-27T01:27:37.393Z,99854.97
2022-12-27T01:30:10.811Z,99851.97
2022-12-27T01:32:39.359Z,99845.84
2022-12-27T01:35:08.426Z,99866.34
2022-12-27T01:37:37.581Z,99858.53
2022-12-27T01:40:07.241Z,99863.47
2022-12-27T01:42:52.500Z,99859.56
2022-12-27T01:45:25.987Z,99853.59
2022-12-27T01:48:05.229Z,99854.38
2022-12-27T01:50:38.052Z,99846.63
2022-12-27T01:53:14.502Z,99864.16
2022-12-27T01:55:49.452Z,99861.50
2022-12-27T01:58:23.478Z,99865.78
2022-12-27T02:00:53.863Z,99851.84
2022-12-27T02:03:28.126Z,99850.19
2022-12-27T02:05:58.255Z,99856.34
2022-12-27T02:08:46.793Z,99861.41
2022-12-27T02:11:16.975Z,99861.53
2022-12-27T02:13:47.844Z,99855.22
2022-12-27T02:16:20.528Z,99866.28
2022-12-27T02:18:49.039Z,99872.53
2022-12-27T02:21:42.688Z,99872.22
2022-12-27T02:24:55.379Z,99872.56
2022-12-27T02:27:46.725Z,99887.28
2022-12-27T02:30:17.160Z,99894.34
2022-12-27T02:32:51.584Z,99884.75
2022-12-27T02:35:25.912Z,99899.50
2022-12-27T02:38:00.296Z,99890.78
2022-12-27T02:40:47.796Z,99893.56
2022-12-27T02:43:34.290Z,99891.00
2022-12-27T02:46:24.964Z,99885.84
2022-12-27T02:49:11.968Z,99893.63
2022-12-27T02:52:11.433Z,99905.63
2022-12-27T02:55:01.318Z,99901.53
2022-12-27T02:57:38.666Z,99892.94
2022-12-27T03:00:29.502Z,99901.31
2022-12-27T03:03:24.045Z,99905.97
2022-12-27T03:06:42.980Z,99899.75
2022-12-27T03:10:08.897Z,99904.44
2022-12-27T03:13:08.131Z,99901.69
2022-12-27T03:15:59.016Z,99898.16
2022-12-27T03:18:39.731Z,99891.03
2022-12-27T03:21:30.006Z,99900.66
2022-12-27T03:24:21.881Z,99892.84
2022-12-27T03:26:55.128Z,99902.53
2022-12-27T03:29:42.030Z,99900.91
2022-12-27T03:32:29.769Z,99894.75
2022-12-27T03:35:11.426Z,99898.34
2022-12-27T03:38:03.428Z,99893.75
2022-12-27T03:41:02.821Z,99902.75
2022-12-27T03:43:31.262Z,99890.53
2022-12-27T03:46:18.743Z,99898.34
2022-12-27T03:48:56.843Z,99901.66
2022-12-27T03:51:29.146Z,99895.50
2022-12-27T03:54:04.982Z,99907.06
2022-12-27T03:56:33.601Z,99897.34
2022-12-27T03:59:03.751Z,99909.38
2022-12-27T04:01:32.023Z,99902.69
2022-12-27T04:04:00.249Z,99903.28
2022-12-27T04:06:30.269Z,99907.63
2022-12-27T04:09:16.683Z,99898.84
2022-12-27T04:12:02.155Z,99895.38
2022-12-27T04:14:47.873Z,99918.09
2022-12-27T04:17:33.712Z,99920.66
2022-12-27T04:20:19.197Z,99913.91
2022-12-27T04:23:06.311Z,99919.03
2022-12-27T04:25:52.331Z,99902.31
2022-12-27T04:28:38.061Z,99923.38
2022-12-27T04:31:26.718Z,99932.91
2022-12-27T04:34:12.233Z,99925.47
2022-12-27T04:36:40.866Z,99935.97
2022-12-27T04:39:10.811Z,99931.03
2022-12-27T04:41:58.445Z,99925.69
2022-12-27T04:44:58.603Z,99937.94
2022-12-27T04:47:45.827Z,99936.91
2022-12-27T04:50:40.634Z,99931.09
2022-12-27T04:53:29.881Z,99935.34
2022-12-27T04:56:00.137Z,99936.91
2022-12-27T04:58:29.169Z,99928.31
2022-12-27T05:01:18.031Z,99923.84
2022-12-27T05:03:48.168Z,99942.09
2022-12-27T05:06:17.080Z,99942.06
2022-12-27T05:09:02.841Z,99953.47
2022-12-27T05:11:51.776Z,99954.13
2022-12-27T05:14:19.973Z,99957.88
2022-12-27T05:16:48.771Z,99964.13
2022-12-27T05:19:16.995Z,99964.94
2022-12-27T05:22:07.195Z,99973.50
2022-12-27T05:24:53.002Z,99962.19
2022-12-27T05:27:22.830Z,99973.59
2022-12-27T05:29:51.013Z,99967.41
2022-12-27T05:32:20.893Z,99968.25
2022-12-27T05:34:49.242Z,99976.06
2022-12-27T05:37:17.648Z,99974.44
2022-12-27T05:39:47.533Z,99977.09
2022-12-27T05:42:15.705Z,99980.38
2022-12-27T05:44:45.518Z,99973.50
2022-12-27T05:47:13.731Z,99982.94
2022-12-27T05:49:42.394Z,99983.06
2022-12-27T05:52:11.103Z,99988.00
2022-12-27T05:54:39.715Z,99989.00
2022-12-27T05:57:07.950Z,99989.88
2022-12-27T05:59:37.817Z,99992.44
2022-12-27T06:02:08.130Z,99984.75
2022-12-27T06:04:40.159Z,99995.16
2022-12-27T06:07:08.689Z,99999.53
2022-12-27T06:09:37.224Z,100001.94
2022-12-27T06:12:05.997Z,100010.88
2022-12-27T06:14:36.242Z,100009.72
2022-12-27T06:17:05.509Z,100002.75
2022-12-27T06:19:37.550Z,100006.19
2022-12-27T06:22:06.889Z,100021.78
2022-12-27T06:24:36.791Z,100026.22
2022-12-27T06:27:08.756Z,100022.91
2022-12-27T06:29:40.840Z,100023.72
2022-12-27T06:32:09.314Z,100024.63
2022-12-27T06:34:39.357Z,100027.25
2022-12-27T06:37:09.302Z,100021.31
2022-12-27T06:39:37.620Z,100020.28
2022-12-27T06:42:08.979Z,100016.72
2022-12-27T06:44:37.937Z,100026.13
2022-12-27T06:47:07.532Z,100031.50
2022-12-27T06:49:35.811Z,100025.19
2022-12-27T06:52:06.270Z,100028.72
2022-12-27T06:54:35.194Z,100017.19
2022-12-27T06:57:03.531Z,100032.88
2022-12-27T06:59:31.913Z,100026.00
2022-12-27T07:02:00.632Z,100028.59
2022-12-27T07:04:29.372Z,100026.78
2022-12-27T07:06:57.852Z,100031.88
2022-12-27T07:09:27.699Z,100040.81
2022-12-27T07:11:56.399Z,100028.53
2022-12-27T07:14:24.944Z,100028.75
2022-12-27T07:16:55.042Z,100040.09
2022-12-27T07:19:23.396Z,100047.28
2022-12-27T07:21:51.817Z,100037.56
2022-12-27T07:24:22.511Z,100046.16
2022-12-27T07:26:52.595Z,100044.53
2022-12-27T07:29:26.464Z,100057.69
2022-12-27T07:31:57.282Z,100061.19
2022-12-27T07:34:26.226Z,100065.66
2022-12-27T07:36:54.745Z,100066.66
2022-12-27T07:39:23.134Z,100084.97
2022-12-27T07:41:53.454Z,100075.94
2022-12-27T07:44:21.866Z,100080.28
2022-12-27T07:46:50.666Z,100086.75
2022-12-27T07:49:19.529Z,100085.78
2022-12-27T07:51:47.964Z,100084.00
2022-12-27T07:54:16.590Z,100090.03
2022-12-27T07:56:44.891Z,100090.38
2022-12-27T07:59:16.697Z,100086.69
2022-12-27T08:01:59.815Z,100089.47
2022-12-27T08:04:28.342Z,100099.94
2022-12-27T08:07:02.196Z,100095.56
2022-12-27T08:09:34.229Z,100100.03
2022-12-27T08:12:02.659Z,100101.59
2022-12-27T08:14:33.754Z,100102.56
2022-12-27T08:17:07.433Z,100103.34
2022-12-27T08:19:36.419Z,100111.66
2022-12-27T08:22:06.821Z,100106.66
2022-12-27T08:24:37.264Z,100113.63
2022-12-27T08:27:06.140Z,100111.00
2022-12-27T08:29:38.009Z,100108.13
2022-12-27T08:32:06.850Z,100108.31
2022-12-27T08:34:35.251Z,100110.81
2022-12-27T08:37:05.072Z,100112.47
2022-12-27T08:39:34.813Z,100113.56
2022-12-27T08:42:03.081Z,100112.44
2022-12-27T08:44:31.738Z,100114.13
2022-12-27T08:47:01.519Z,100111.25
2022-12-27T08:49:32.752Z,100128.28
2022-12-27T08:52:01.087Z,100123.97
2022-12-27T08:54:30.520Z,100116.34
2022-12-27T08:56:59.721Z,100130.50
2022-12-27T08:59:29.848Z,100127.16
2022-12-27T09:01:59.205Z,100132.06
2022-12-27T09:04:29.262Z,100113.56
2022-12-27T09:06:57.578Z,100118.03
2022-12-27T09:09:26.591Z,100121.84
2022-12-27T09:11:54.993Z,100110.13
2022-12-27T09:14:23.495Z,100110.75
2022-12-27T09:16:51.919Z,100124.66
2022-12-27T09:19:20.530Z,100125.28
2022-12-27T09:21:50.521Z,100134.28
2022-12-27T09:24:19.183Z,100140.09
2022-12-27T09:26:47.916Z,100146.13
2022-12-27T09:29:16.683Z,100144.31
2022-12-27T09:31:46.562Z,100139.97
2022-12-27T09:34:16.755Z,100138.84
2022-12-27T09:36:45.688Z,100145.47
2022-12-27T09:39:21.265Z,100136.28
2022-12-27T09:44:53.317Z,100138.00
2022-12-27T09:47:26.418Z,100140.06
2022-12-27T09:50:00.604Z,100143.34
2022-12-27T09:52:34.321Z,100144.09
2022-12-27T09:55:09.913Z,100138.44
2022-12-27T09:57:40.966Z,100142.56
2022-12-27T10:00:16.831Z,100140.75
2022-12-27T10:02:46.330Z,100129.16
2022-12-27T10:05:23.961Z,100127.44
2022-12-27T10:08:21.470Z,100123.53
2022-12-27T10:11:00.409Z,100147.41
2022-12-27T10:13:43.836Z,100141.19
2022-12-27T10:16:24.619Z,100122.69
2022-12-27T10:19:07.236Z,100137.91
2022-12-27T10:21:43.151Z,100128.88
2022-12-27T10:24:22.674Z,100118.19
2022-12-27T10:26:55.684Z,100126.09
2022-12-27T10:29:28.279Z,100127.59
2022-12-27T10:31:56.801Z,100117.31
2022-12-27T10:34:28.742Z,100107.75
2022-12-27T10:36:57.070Z,100106.06
2022-12-27T10:39:29.597Z,100105.41
2022-12-27T10:42:10.118Z,100107.59
2022-12-27T10:44:38.666Z,100115.59
2022-12-27T10:47:07.391Z,100113.66
2022-12-27T10:49:37.453Z,100121.63
2022-12-27T10:52:11.513Z,100114.22
2022-12-27T10:54:53.681Z,100112.16
2022-12-27T10:57:29.773Z,100104.81
2022-12-27T11:00:20.085Z,100099.94
2022-12-27T11:02:53.944Z,100099.31
2022-12-27T11:05:25.132Z,100110.75
2022-12-27T11:07:55.189Z,100090.84
2022-12-27T11:10:25.845Z,100107.28
2022-12-27T11:13:02.743Z,100110.94
2022-12-27T11:15:35.107Z,100111.16
2022-12-27T11:18:10.870Z,100106.31
2022-12-27T11:20:41.048Z,100102.81
2022-12-27T11:23:16.645Z,100107.13
2022-12-27T11:25:54.850Z,100102.16
2022-12-27T11:28:33.658Z,100106.16
2022-12-27T11:31:07.414Z,100104.00
2022-12-27T11:33:40.046Z,100096.56
2022-12-27T11:36:10.369Z,100093.66
2022-12-27T11:38:40.723Z,100086.44
2022-12-27T11:41:13.490Z,100088.34
2022-12-27T11:43:52.120Z,100083.34
2022-12-27T11:46:28.728Z,100084.97
2022-12-27T11:49:00.675Z,100078.88
2022-12-27T11:51:52.345Z,100091.59
2022-12-27T11:54:41.695Z,100100.38
2022-12-27T11:57:21.622Z,100103.41
2022-12-27T12:00:15.137Z,100084.19
2022-12-27T12:02:57.499Z,100102.28
2022-12-27T12:05:49.353Z,100099.00
2022-12-27T12:08:33.721Z,100098.69
2022-12-27T12:11:11.154Z,100098.72
2022-12-27T12:13:58.636Z,100107.81
2022-12-27T12:17:04.385Z,100102.47
2022-12-27T12:19:56.350Z,100097.25
2022-12-27T12:22:39.585Z,100097.44
2022-12-27T12:25:35.958Z,100095.88
2022-12-27T12:28:58.318Z,100086.88
2022-12-27T12:31:40.922Z,100081.66
2022-12-27T12:34:30.495Z,100077.66
2022-12-27T12:37:19.367Z,100085.47
2022-12-27T12:40:08.647Z,100083.78
2022-12-27T12:42:47.374Z,100079.09
2022-12-27T12:45:44.252Z,100075.09
2022-12-27T12:48:53.924Z,100078.94
2022-12-27T12:51:45.580Z,100076.31
2022-12-27T12:54:42.051Z,100084.19
2022-12-27T12:57:30.097Z,100086.38
2022-12-27T13:00:09.396Z,100092.22
2022-12-27T13:03:14.952Z,100081.25
2022-12-27T13:05:49.457Z,100081.25
2022-12-27T13:08:28.713Z,100093.19
2022-12-27T13:11:29.747Z,100077.91
2022-12-27T13:14:29.010Z,100076.16
2022-12-27T13:17:05.090Z,100072.81
2022-12-27T13:19:48.680Z,100071.91
2022-12-27T13:22:27.441Z,100062.50
2022-12-27T13:25:10.676Z,100055.44
2022-12-27T13:27:49.423Z,100055.03
2022-12-27T13:30:21.777Z,100063.75
2022-12-27T13:33:06.915Z,100063.69
2022-12-27T13:35:47.226Z,100068.34
2022-12-27T13:38:28.754Z,100057.88
2022-12-27T13:41:32.997Z,100063.44
2022-12-27T13:44:21.322Z,100063.44
2022-12-27T13:47:04.657Z,100066.47
2022-12-27T13:49:55.128Z,100062.72
2022-12-27T13:52:41.154Z,100059.09
2022-12-27T13:55:36.737Z,100048.75
2022-12-27T13:58:42.929Z,100045.03
2022-12-27T14:01:38.600Z,100045.38
2022-12-27T14:04:26.326Z,100054.66
2022-12-27T14:07:14.748Z,100051.22
2022-12-27T14:10:13.532Z,100051.00
2022-12-27T14:12:56.690Z,100043.09
2022-12-27T14:15:42.439Z,100042.56
2022-12-27T14:18:31.976Z,100037.03
2022-12-27T14:21:18.762Z,100033.16
2022-12-27T14:24:12.298Z,100035.50
2022-12-27T14:27:35.289Z,100038.97
2022-12-27T14:30:39.879Z,100044.13
2022-12-27T14:33:53.541Z,100034.00
2022-12-27T14:37:06.206Z,100021.22
2022-12-27T14:40:02.322Z,100028.38
2022-12-27T14:43:05.110Z,100014.03
2022-12-27T14:46:02.174Z,100012.81
2022-12-27T14:49:27.758Z,100012.16
2022-12-27T14:52:45.217Z,100015.63
2022-12-27T14:55:45.318Z,100014.66
2022-12-27T14:58:33.104Z,100024.69
2022-12-27T15:01:12.571Z,100011.97
2022-12-27T15:04:00.450Z,100017.75
2022-12-27T15:06:49.612Z,100027.50
2022-12-27T15:09:33.228Z,100034.38
2022-12-27T15:12:14.868Z,100033.31
2022-12-27T15:15:02.059Z,100035.53
2022-12-27T15:17:47.723Z,100028.81
2022-12-27T15:20:59.925Z,100043.91
2022-12-27T15:23:36.088Z,100045.56
2022-12-27T15:26:22.319Z,100044.34
2022-12-27T15:29:17.598Z,100052.56
2022-12-27T15:32:06.076Z,100053.75
2022-12-27T15:34:53.486Z,100059.13
2022-12-27T15:37:55.908Z,100041.72
2022-12-27T15:40:38.912Z,100046.94
2022-12-27T15:43:23.498Z,100046.47
2022-12-27T15:46:09.308Z,100044.81
2022-12-27T15:49:00.685Z,100045.59
2022-12-27T15:51:39.717Z,100042.97
2022-12-27T15:54:33.384Z,100044.06
2022-12-27T15:57:32.988Z,100044.31
2022-12-27T16:00:16.973Z,100058.56
2022-12-27T16:02:56.712Z,100053.97
2022-12-27T16:05:50.236Z,100057.63
2022-12-27T16:08:37.890Z,100059.47
2022-12-27T16:11:14.111Z,100045.44
2022-12-27T16:13:48.847Z,100036.78
2022-12-27T16:16:57.678Z,100049.78
2022-12-27T16:19:55.284Z,100054.22
2022-12-27T16:22:35.219Z,100045.56
2022-12-27T16:25:30.996Z,100055.78
2022-12-27T16:28:03.748Z,100048.06
2022-12-27T16:30:42.023Z,100048.94
2022-12-27T16:33:23.932Z,100037.72
2022-12-27T16:36:20.657Z,100035.63
2022-12-27T16:39:13.910Z,100035.84
2022-12-27T16:42:05.017Z,100040.03
2022-12-27T16:44:47.871Z,100049.34
2022-12-27T16:47:44.989Z,100049.03
2022-12-27T16:50:50.258Z,100051.75
2022-12-27T16:53:41.338Z,100054.22
2022-12-27T16:56:22.635Z,100041.63
2022-12-27T16:58:51.365Z,100045.00
2022-12-27T17:02:03.753Z,100027.53
2022-12-27T17:04:58.620Z,100028.53
2022-12-27T17:07:52.377Z,100027.97
2022-12-27T17:11:02.612Z,100026.22
2022-12-27T17:13:44.219Z,100028.00
2022-12-27T17:16:24.250Z,100028.22
2022-12-27T17:18:58.079Z,100030.97
2022-12-27T17:21:32.993Z,100024.75
2022-12-27T17:24:10.932Z,100033.53
2022-12-27T17:27:06.697Z,100033.25
2022-12-27T17:30:04.447Z,100038.13
2022-12-27T17:32:50.971Z,100037.78
2022-12-27T17:35:30.779Z,100044.47
2022-12-27T17:38:14.024Z,100046.81
2022-12-27T17:40:51.872Z,100047.66
2022-12-27T17:43:50.062Z,100046.00
2022-12-27T17:46:33.614Z,100037.97
2022-12-27T17:49:03.294Z,100037.22
2022-12-27T17:51:35.821Z,100026.72
2022-12-27T17:54:40.576Z,100029.34
2022-12-27T17:57:30.032Z,100025.16
2022-12-27T17:59:59.576Z,100019.28
2022-12-27T18:02:32.713Z,100016.38
2022-12-27T18:05:05.521Z,100023.78
2022-12-27T18:07:35.539Z,100028.06
2022-12-27T18:10:09.346Z,100038.47
2022-12-27T18:12:40.242Z,100033.72
2022-12-27T18:15:14.698Z,100033.97
2022-12-27T18:17:48.943Z,100036.72
2022-12-27T18:20:31.427Z,100037.56
2022-12-27T18:23:15.970Z,100037.41
2022-12-27T18:25:53.426Z,100043.31
2022-12-27T18:28:30.501Z,100044.63
2022-12-27T18:31:09.378Z,100040.13
2022-12-27T18:33:44.893Z,100032.72
2022-12-27T18:36:17.495Z,100032.31
2022-12-27T18:38:51.005Z,100034.28
2022-12-27T18:41:23.558Z,100032.97
2022-12-27T18:43:58.841Z,100025.34
2022-12-27T18:46:31.675Z,100025.28
2022-12-27T18:49:04.272Z,100019.59
2022-12-27T18:51:34.828Z,100010.78
2022-12-27T18:54:03.885Z,100016.88
2022-12-27T18:56:37.150Z,100020.59
2022-12-27T18:59:18.396Z,100015.09
2022-12-27T19:01:48.511Z,100014.06
2022-12-27T19:04:25.181Z,100018.34
2022-12-27T19:06:58.593Z,100016.22
2022-12-27T19:09:29.372Z,100008.84
2022-12-27T19:12:00.508Z,100008.91
2022-12-27T19:14:39.593Z,100004.34
2022-12-27T19:17:11.213Z,99993.41
2022-12-27T19:19:41.459Z,99993.81
2022-12-27T19:22:34.534Z,99997.53
2022-12-27T19:25:04.838Z,99989.72
2022-12-27T19:27:33.827Z,99982.34
2022-12-27T19:30:02.703Z,99975.13
2022-12-27T19:32:34.633Z,99971.25
2022-12-27T19:35:06.255Z,99962.06
2022-12-27T19:37:39.677Z,99967.69
2022-12-27T19:40:09.401Z,99968.72
2022-12-27T19:42:37.753Z,99967.19
2022-12-27T19:45:06.797Z,99955.28
2022-12-27T19:47:36.560Z,99948.25
2022-12-27T19:50:06.884Z,99946.94
2022-12-27T19:52:36.386Z,99946.78
2022-12-27T19:55:07.757Z,99950.56
2022-12-27T19:57:36.833Z,99948.06
2022-12-27T20:00:15.926Z,99953.22
2022-12-27T20:02:44.332Z,99947.13
2022-12-27T20:05:15.484Z,99944.41
2022-12-27T20:07:44.275Z,99944.50
2022-12-27T20:10:18.194Z,99951.50
2022-12-27T20:12:46.570Z,99944.59
2022-12-27T20:15:15.366Z,99940.13
2022-12-27T20:17:45.462Z,99937.63
2022-12-27T20:20:15.379Z,99941.06
2022-12-27T20:22:43.791Z,99942.31
2022-12-27T20:25:12.557Z,99953.63
2022-12-27T20:27:41.354Z,99939.94
2022-12-27T20:30:11.101Z,99938.81
2022-12-27T20:32:39.830Z,99936.03
2022-12-27T20:35:12.798Z,99940.50
2022-12-27T20:37:43.413Z,99925.56
2022-12-27T20:40:14.897Z,99916.88
2022-12-27T20:42:43.257Z,99908.25
2022-12-27T20:45:12.874Z,99913.28
2022-12-27T20:47:41.339Z,99920.44
2022-12-27T20:50:10.966Z,99921.59
2022-12-27T20:52:39.359Z,99911.06
2022-12-27T20:55:11.468Z,99915.28
2022-12-27T20:57:42.901Z,99913.22
2022-12-27T21:00:14.222Z,99906.16
2022-12-27T21:02:42.922Z,99914.66
2022-12-27T21:05:12.973Z,99909.31
2022-12-27T21:07:42.286Z,99914.81
2022-12-27T21:10:13.071Z,99911.31
2022-12-27T21:12:41.392Z,99898.97
2022-12-27T21:15:10.999Z,99908.34
2022-12-27T21:17:40.120Z,99904.34
2022-12-27T21:20:11.817Z,99896.28
2022-12-27T21:22:41.662Z,99904.06
2022-12-27T21:25:12.290Z,99892.75
2022-12-27T21:27:40.436Z,99902.47
2022-12-27T21:30:10.979Z,99904.13
2022-12-27T21:32:39.423Z,99901.41
2022-12-27T21:35:08.997Z,99908.13
2022-12-27T21:37:40.703Z,99899.59
2022-12-27T21:40:12.180Z,99896.06
2022-12-27T21:42:45.172Z,99889.09
2022-12-27T21:45:13.575Z,99888.63
2022-12-27T21:47:45.581Z,99882.53
2022-12-27T21:50:14.706Z,99884.09
2022-12-27T21:52:46.821Z,99880.56
2022-12-27T21:55:16.300Z,99882.47
2022-12-27T21:57:46.971Z,99880.56
2022-12-27T22:00:17.138Z,99871.81
2022-12-27T22:02:45.620Z,99866.66
2022-12-27T22:05:16.535Z,99864.75
2022-12-27T22:07:45.468Z,99861.63
2022-12-27T22:10:14.229Z,99853.84
2022-12-27T22:12:42.598Z,99847.63
2022-12-27T22:15:17.671Z,99845.09
2022-12-27T22:17:46.058Z,99844.03
2022-12-27T22:20:14.964Z,99843.00
2022-12-27T22:22:43.642Z,99843.94
2022-12-27T22:25:13.317Z,99831.59
2022-12-27T22:27:41.674Z,99834.22
2022-12-27T22:30:12.690Z,99825.53
2022-12-27T22:32:44.397Z,99838.69
2022-12-27T22:35:15.038Z,99836.06
2022-12-27T22:37:43.450Z,99834.75
2022-12-27T22:40:31.175Z,99838.19
2022-12-27T22:43:02.351Z,99841.66
2022-12-27T22:45:32.764Z,99843.72
2022-12-27T22:48:01.078Z,99840.94
2022-12-27T22:50:29.455Z,99836.81
2022-12-27T22:52:57.849Z,99830.53
2022-12-27T22:55:26.015Z,99833.91
2022-12-27T22:57:54.405Z,99834.63
2022-12-27T23:00:23.180Z,99833.03
2022-12-27T23:02:53.241Z,99832.22
2022-12-27T23:05:25.762Z,99827.06
2022-12-27T23:08:03.313Z,99825.19
2022-12-27T23:10:32.989Z,99828.13
2022-12-27T23:13:04.159Z,99828.22
2022-12-27T23:15:32.533Z,99817.34
2022-12-27T23:18:04.027Z,99823.34
2022-12-27T23:20:34.995Z,99819.31
2022-12-27T23:23:03.388Z,99820.13
2022-12-27T23:25:32.864Z,99805.19
2022-12-27T23:28:01.385Z,99799.09
2022-12-27T23:30:29.887Z,99799.81
2022-12-27T23:32:58.420Z,99793.69
2022-12-27T23:35:28.396Z,99785.63
2022-12-27T23:37:56.849Z,99785.72
2022-12-27T23:40:25.039Z,99777.97
2022-12-27T23:42:53.522Z,99778.69
2022-12-27T23:45:21.876Z,99770.81
2022-12-27T23:47:52.345Z,99752.44
2022-12-27T23:50:21.210Z,99767.31
2022-12-27T23:52:51.711Z,99763.06
2022-12-27T23:55:20.377Z,99752.34
2022-12-27T23:57:49.639Z,99736.97
